Dougherty, Texas
Current Conditions -  °F | °C
As of 7:55 PM on Saturday 25 Oct 2014 (Local Time) from KPVW Reporting Station
Clear Clear  
Wind Chill: 69°   Ceiling: Unl
Heat Index: 69°   Visibility: 10mi
Dew Point: 53°   Wind: 9mph
Humidity: 58%   Direction: 170°S
Pressure: 30.09"   Gusts: NA
Location:  33.94°N, 101.09°W
Report Text: KPVW 260055Z AUTO 17008KT 10SM CLR 20/12 A3009 RMK AO2 T02030119
Loading
Personal Weather Stations






























Interactive Weather Map
Tropical Storm Tracking
New forecast layout! Learn more

10-Day Weather Forecast

Advertisements
Track Severe Weather on mobile